createdAt,value
2022-11-23T00:01:36.307Z,1.28
2022-11-23T00:05:09.375Z,1.30
2022-11-23T00:08:47.489Z,1.31
2022-11-23T00:12:24.480Z,1.31
2022-11-23T00:16:07.197Z,1.31
2022-11-23T00:19:40.092Z,1.32
2022-11-23T00:23:17.795Z,1.32
2022-11-23T00:26:55.296Z,1.32
2022-11-23T00:30:32.997Z,1.31
2022-11-23T00:34:10.803Z,1.30
2022-11-23T00:37:48.406Z,1.30
2022-11-23T00:41:27.432Z,1.28
2022-11-23T00:45:04.326Z,1.28
2022-11-23T00:48:43.127Z,1.28
2022-11-23T00:52:19.119Z,1.28
2022-11-23T00:55:58.005Z,1.27
2022-11-23T00:59:34.804Z,1.27
2022-11-23T01:03:12.437Z,1.26
2022-11-23T01:06:50.040Z,1.27
2022-11-23T01:10:27.743Z,1.27
2022-11-23T01:14:05.856Z,1.27
2022-11-23T01:17:43.253Z,1.26
2022-11-23T01:21:20.737Z,1.27
2022-11-23T01:24:58.602Z,1.26
2022-11-23T01:28:38.108Z,1.25
2022-11-23T01:32:13.942Z,1.25
2022-11-23T01:35:51.570Z,1.25
2022-11-23T01:39:29.662Z,1.25
2022-11-23T01:43:26.229Z,1.24
2022-11-23T01:46:44.788Z,1.23
2022-11-23T01:50:22.387Z,1.23
2022-11-23T01:54:04.904Z,1.23
2022-11-23T01:57:46.310Z,1.23
2022-11-23T02:01:16.415Z,1.22
2022-11-23T02:04:54.548Z,1.21
2022-11-23T02:08:31.731Z,1.21
2022-11-23T02:12:13.017Z,1.21
2022-11-23T02:15:46.522Z,1.21
2022-11-23T02:19:34.909Z,1.18
2022-11-23T02:23:04.597Z,1.15
2022-11-23T02:26:39.632Z,1.10
2022-11-23T02:30:18.265Z,1.06
2022-11-23T02:33:54.735Z,1.01
2022-11-23T02:37:32.949Z,0.98
2022-11-23T02:41:10.141Z,0.93
2022-11-23T02:45:02.899Z,0.90
2022-11-23T02:48:26.169Z,0.86
2022-11-23T02:52:04.176Z,0.82
2022-11-23T02:55:40.754Z,0.79
2022-11-23T02:59:19.277Z,0.74
2022-11-23T03:02:56.369Z,0.69
2022-11-23T03:06:34.277Z,0.66
2022-11-23T03:10:11.878Z,0.65
2022-11-23T03:13:49.482Z,0.65
2022-11-23T03:17:28.318Z,0.64
2022-11-23T03:21:08.884Z,0.62
2022-11-23T03:24:42.491Z,0.61
2022-11-23T03:28:20.296Z,0.59
2022-11-23T03:31:57.899Z,0.59
2022-11-23T03:35:35.811Z,0.60
2022-11-23T03:39:13.614Z,0.62
2022-11-23T03:42:51.010Z,0.63
2022-11-23T03:46:28.512Z,0.64
2022-11-23T03:50:07.340Z,0.65
2022-11-23T03:53:44.124Z,0.67
2022-11-23T03:57:21.780Z,0.67
2022-11-23T04:00:59.971Z,0.66
2022-11-23T04:04:37.236Z,0.65
2022-11-23T04:08:14.836Z,0.64
2022-11-23T04:12:11.690Z,0.66
2022-11-23T04:15:30.245Z,0.66
2022-11-23T04:19:08.258Z,0.65
2022-11-23T04:22:45.552Z,0.64
2022-11-23T04:26:23.567Z,0.63
2022-11-23T04:30:01.165Z,0.63
2022-11-23T04:33:38.868Z,0.62
2022-11-23T04:37:16.369Z,0.59
2022-11-23T04:40:54.278Z,0.57
2022-11-23T04:44:31.980Z,0.54
2022-11-23T04:48:09.788Z,0.54
2022-11-23T04:51:47.185Z,0.52
2022-11-23T04:55:25.095Z,0.50
2022-11-23T04:59:02.900Z,0.48
2022-11-23T05:02:40.501Z,0.47
2022-11-23T05:06:18.205Z,0.48
2022-11-23T05:09:56.936Z,0.46
2022-11-23T05:13:34.046Z,0.51
2022-11-23T05:17:12.381Z,0.54
2022-11-23T05:20:49.022Z,0.55
2022-11-23T05:24:26.520Z,0.57
2022-11-23T05:28:30.160Z,0.57
2022-11-23T05:31:42.033Z,0.57
2022-11-23T05:35:29.998Z,0.57
2022-11-23T05:38:58.361Z,0.58
2022-11-23T05:42:35.552Z,0.60
2022-11-23T05:46:12.847Z,0.59
2022-11-23T05:49:51.166Z,0.58
2022-11-23T05:53:28.359Z,0.56
2022-11-23T05:57:05.778Z,0.54
2022-11-23T06:00:43.670Z,0.54
2022-11-23T06:04:21.161Z,0.56
2022-11-23T06:07:59.073Z,0.57
2022-11-23T06:11:37.290Z,0.56
2022-11-23T06:15:14.380Z,0.55
2022-11-23T06:18:52.288Z,0.54
2022-11-23T06:22:29.761Z,0.53
2022-11-23T06:26:07.388Z,0.53
2022-11-23T06:29:46.970Z,0.55
2022-11-23T06:33:23.001Z,0.58
2022-11-23T06:37:00.604Z,0.59
2022-11-23T06:40:38.103Z,0.60
2022-11-23T06:44:16.012Z,0.59
2022-11-23T06:47:56.895Z,0.62
2022-11-23T06:51:31.421Z,0.61
2022-11-23T06:55:09.533Z,0.63
2022-11-23T06:58:46.829Z,0.64
2022-11-23T07:02:24.331Z,0.64
2022-11-23T07:06:08.792Z,0.65
2022-11-23T07:09:41.056Z,0.68
2022-11-23T07:13:17.751Z,0.70
2022-11-23T07:16:55.581Z,0.73
2022-11-23T07:20:34.271Z,0.75
2022-11-23T07:24:10.860Z,0.77
2022-11-23T07:27:48.702Z,0.77
2022-11-23T07:31:26.403Z,0.79
2022-11-23T07:35:04.705Z,0.82
2022-11-23T07:38:41.911Z,0.85
2022-11-23T07:42:42.863Z,0.91
2022-11-23T07:45:57.619Z,0.96
2022-11-23T07:49:34.618Z,0.97
2022-11-23T07:53:12.187Z,0.98
2022-11-23T07:56:49.858Z,0.98
2022-11-23T08:00:29.144Z,1.02
2022-11-23T08:04:05.504Z,1.04
2022-11-23T08:07:43.241Z,1.06
2022-11-23T08:11:22.448Z,1.11
2022-11-23T08:14:58.308Z,1.52
2022-11-23T08:18:36.626Z,1.61
2022-11-23T08:22:15.919Z,1.59
2022-11-23T08:26:13.586Z,1.53
2022-11-23T08:29:30.353Z,1.47
2022-11-23T08:33:08.270Z,1.40
2022-11-23T08:36:45.353Z,1.33
2022-11-23T08:40:25.414Z,1.32
2022-11-23T08:43:59.841Z,1.30
2022-11-23T08:47:37.750Z,1.28
2022-11-23T08:51:15.248Z,1.25
2022-11-23T08:54:53.156Z,1.24
2022-11-23T08:58:31.474Z,1.25
2022-11-23T09:02:12.450Z,1.27
2022-11-23T09:05:46.370Z,1.26
2022-11-23T09:09:23.870Z,1.28
2022-11-23T09:13:01.501Z,1.30
2022-11-23T09:16:39.278Z,1.31
2022-11-23T09:20:16.908Z,1.30
2022-11-23T09:23:54.893Z,1.32
2022-11-23T09:27:32.187Z,1.33
2022-11-23T09:31:10.096Z,1.33
2022-11-23T09:34:48.012Z,1.35
2022-11-23T09:38:51.525Z,1.36
2022-11-23T09:42:32.598Z,1.39
2022-11-23T09:45:55.117Z,1.43
2022-11-23T09:49:22.701Z,1.46
2022-11-23T09:53:13.530Z,1.46
2022-11-23T09:56:38.969Z,1.45
2022-11-23T10:00:22.379Z,1.46
2022-11-23T10:03:51.585Z,1.48
2022-11-23T10:07:34.850Z,1.49
2022-11-23T10:11:12.624Z,1.48
2022-11-23T10:14:57.804Z,1.49
2022-11-23T10:18:37.272Z,1.52
2022-11-23T10:22:10.446Z,1.52
2022-11-23T10:25:52.666Z,1.50
2022-11-23T10:29:36.304Z,1.48
2022-11-23T10:32:52.807Z,1.49
2022-11-23T10:36:30.615Z,1.51
2022-11-23T10:40:29.617Z,1.53
2022-11-23T10:43:48.786Z,1.56
2022-11-23T10:47:50.424Z,1.59
2022-11-23T10:51:19.556Z,1.61
2022-11-23T10:54:49.580Z,1.60
2022-11-23T10:58:28.819Z,1.60
2022-11-23T11:02:18.406Z,1.69
2022-11-23T11:09:20.374Z,2.24
2022-11-23T11:13:42.850Z,2.25
2022-11-23T11:16:53.212Z,2.21
2022-11-23T11:20:35.119Z,2.20
2022-11-23T11:24:26.338Z,2.20
2022-11-23T11:27:52.073Z,2.19
2022-11-23T11:31:55.985Z,2.19
2022-11-23T11:35:29.995Z,2.19
2022-11-23T11:39:15.032Z,2.19
2022-11-23T11:42:38.920Z,2.16
2022-11-23T11:49:45.963Z,2.13
2022-11-23T11:53:23.102Z,2.07
2022-11-23T11:57:25.860Z,2.03
2022-11-23T12:00:44.810Z,1.99
2022-11-23T12:04:24.666Z,2.00
2022-11-23T12:08:26.184Z,2.00
2022-11-23T12:11:37.514Z,2.00
2022-11-23T12:19:17.750Z,1.93
2022-11-23T12:22:46.298Z,1.90
2022-11-23T12:26:45.400Z,1.88
2022-11-23T12:30:16.582Z,1.86
2022-11-23T12:33:55.485Z,1.88
2022-11-23T12:37:41.893Z,1.92
2022-11-23T12:41:07.744Z,1.95
2022-11-23T12:44:59.185Z,1.98
2022-11-23T12:48:21.520Z,2.02
2022-11-23T12:52:17.932Z,2.07
2022-11-23T12:55:43.554Z,2.14
2022-11-23T12:59:11.314Z,2.19
2022-11-23T13:03:07.973Z,2.25
2022-11-23T13:07:12.414Z,2.28
2022-11-23T13:10:21.624Z,2.31
2022-11-23T13:14:12.560Z,2.32
2022-11-23T13:17:53.049Z,2.34
2022-11-23T13:21:45.268Z,2.36
2022-11-23T13:25:10.173Z,2.37
2022-11-23T13:28:32.930Z,2.38
2022-11-23T13:32:35.616Z,2.38
2022-11-23T13:35:52.735Z,2.36
2022-11-23T13:39:44.522Z,2.37
2022-11-23T13:43:34.213Z,2.35
2022-11-23T13:47:18.667Z,2.35
2022-11-23T13:50:30.629Z,2.33
2022-11-23T13:54:22.556Z,2.33
2022-11-23T13:58:06.199Z,2.33
2022-11-23T14:02:00.910Z,2.33
2022-11-23T14:05:57.298Z,2.30
2022-11-23T14:09:24.432Z,2.27
2022-11-23T14:13:01.900Z,2.23
2022-11-23T14:16:54.437Z,2.21
2022-11-23T14:20:12.407Z,2.19
2022-11-23T14:24:14.160Z,2.22
2022-11-23T14:27:49.394Z,2.66
2022-11-23T14:31:28.312Z,3.23
2022-11-23T14:35:27.337Z,3.74
2022-11-23T14:38:55.776Z,4.16
2022-11-23T14:42:18.766Z,3.97
2022-11-23T14:45:53.452Z,3.64
2022-11-23T14:49:31.030Z,3.33
2022-11-23T14:53:11.304Z,3.10
2022-11-23T14:56:48.686Z,2.95
2022-11-23T15:00:35.811Z,2.79
2022-11-23T15:04:23.292Z,2.68
2022-11-23T15:07:49.121Z,2.59
2022-11-23T15:11:29.028Z,2.54
2022-11-23T15:14:59.872Z,2.49
2022-11-23T15:18:35.476Z,2.47
2022-11-23T15:22:18.452Z,2.43
2022-11-23T15:25:52.503Z,2.40
2022-11-23T15:29:53.770Z,2.38
2022-11-23T15:33:11.723Z,2.37
2022-11-23T15:36:43.296Z,2.34
2022-11-23T15:40:19.806Z,2.28
2022-11-23T15:43:59.863Z,2.25
2022-11-23T15:47:38.305Z,2.25
2022-11-23T15:51:24.999Z,2.23
2022-11-23T15:54:50.216Z,2.23
2022-11-23T15:58:28.890Z,2.24
2022-11-23T16:02:13.343Z,2.22
2022-11-23T16:05:43.530Z,2.21
2022-11-23T16:09:53.778Z,2.20
2022-11-23T16:13:06.616Z,2.18
2022-11-23T16:16:46.006Z,2.16
2022-11-23T16:20:23.765Z,2.16
2022-11-23T16:23:58.192Z,2.17
2022-11-23T16:27:36.642Z,2.17
2022-11-23T16:31:37.600Z,2.15
2022-11-23T16:34:50.382Z,2.14
2022-11-23T16:38:28.089Z,2.14
2022-11-23T16:42:05.793Z,2.15
2022-11-23T16:45:49.389Z,2.16
2022-11-23T16:49:23.555Z,2.18
2022-11-23T16:53:13.189Z,2.22
2022-11-23T16:56:37.119Z,2.26
2022-11-23T17:00:17.486Z,2.27
2022-11-23T17:03:59.183Z,2.28
2022-11-23T17:07:29.993Z,2.31
2022-11-23T17:11:24.299Z,2.31
2022-11-23T17:14:48.309Z,2.29
2022-11-23T17:18:22.833Z,2.27
2022-11-23T17:22:03.006Z,2.27
2022-11-23T17:25:39.271Z,2.26
2022-11-23T17:29:19.773Z,2.24
2022-11-23T17:32:54.469Z,2.24
2022-11-23T17:36:32.011Z,2.22
2022-11-23T17:40:18.029Z,2.19
2022-11-23T17:43:46.588Z,2.18
2022-11-23T17:47:30.002Z,2.17
2022-11-23T17:51:01.968Z,2.16
2022-11-23T17:54:42.334Z,2.13
2022-11-23T17:58:17.374Z,2.11
2022-11-23T18:01:55.305Z,2.08
2022-11-23T18:05:33.196Z,2.06
2022-11-23T18:09:12.842Z,2.06
2022-11-23T18:12:48.405Z,2.05
2022-11-23T18:16:26.347Z,2.05
2022-11-23T18:20:08.476Z,2.06
2022-11-23T18:23:42.841Z,2.07
2022-11-23T18:27:19.423Z,2.09
2022-11-23T18:30:59.462Z,2.12
2022-11-23T18:34:35.619Z,2.14
2022-11-23T18:38:12.120Z,2.15
2022-11-23T18:41:50.045Z,2.16
2022-11-23T18:45:28.865Z,2.17
2022-11-23T18:49:05.672Z,2.18
2022-11-23T18:52:46.076Z,2.19
2022-11-23T18:56:21.289Z,2.18
2022-11-23T19:00:01.341Z,2.15
2022-11-23T19:03:37.754Z,2.13
2022-11-23T19:07:13.873Z,2.12
2022-11-23T19:10:51.970Z,2.13
2022-11-23T19:15:03.046Z,2.14
2022-11-23T19:18:28.344Z,2.12
2022-11-23T19:22:05.487Z,2.13
2022-11-23T19:25:47.070Z,2.14
2022-11-23T19:29:09.555Z,2.14
2022-11-23T19:32:46.795Z,2.13
2022-11-23T19:36:25.628Z,2.08
2022-11-23T19:44:13.671Z,2.03
2022-11-23T19:47:51.356Z,2.05
2022-11-23T19:51:21.390Z,2.06
2022-11-23T19:55:03.376Z,2.05
2022-11-23T19:58:43.011Z,2.03
2022-11-23T20:02:23.298Z,2.01
2022-11-23T20:05:59.647Z,1.99
2022-11-23T20:09:28.082Z,1.98
2022-11-23T20:13:07.740Z,1.98
2022-11-23T20:21:19.004Z,1.90
2022-11-23T20:24:54.101Z,1.87
2022-11-23T20:29:00.212Z,1.86
2022-11-23T20:32:25.011Z,1.87
2022-11-23T20:36:16.208Z,1.87
2022-11-23T20:39:27.637Z,2.06
2022-11-23T20:43:05.256Z,2.76
2022-11-23T20:50:25.450Z,3.71
2022-11-23T20:53:59.888Z,4.15
2022-11-23T20:57:41.028Z,4.36
2022-11-23T21:01:17.360Z,4.12
2022-11-23T21:05:12.629Z,3.68
2022-11-23T21:08:34.654Z,3.32
2022-11-23T21:12:27.792Z,2.95
2022-11-23T21:15:45.715Z,2.66
2022-11-23T21:19:24.526Z,2.39
2022-11-23T21:23:00.788Z,2.19
2022-11-23T21:26:44.787Z,2.03
2022-11-23T21:30:16.499Z,1.91
2022-11-23T21:33:56.742Z,1.85
2022-11-23T21:37:35.376Z,1.79
2022-11-23T21:41:17.195Z,1.73
2022-11-23T21:44:46.065Z,1.67
2022-11-23T21:48:23.872Z,1.63
2022-11-23T21:52:01.474Z,1.63
2022-11-23T21:55:39.178Z,1.60
2022-11-23T21:59:16.883Z,1.56
2022-11-23T22:02:54.793Z,1.54
2022-11-23T22:06:32.292Z,1.53
2022-11-23T22:10:10.097Z,1.51
2022-11-23T22:13:48.827Z,1.47
2022-11-23T22:17:25.404Z,1.45
2022-11-23T22:21:04.752Z,1.42
2022-11-23T22:24:40.711Z,1.40
2022-11-23T22:28:19.027Z,1.38
2022-11-23T22:31:56.388Z,1.34
2022-11-23T22:35:33.924Z,1.31
2022-11-23T22:39:11.848Z,1.31
2022-11-23T22:42:49.233Z,1.32
2022-11-23T22:46:27.392Z,1.34
2022-11-23T22:50:05.292Z,1.33
2022-11-23T22:53:44.487Z,1.34
2022-11-23T22:57:20.601Z,1.34
2022-11-23T23:01:04.604Z,1.34
2022-11-23T23:04:35.537Z,1.31
2022-11-23T23:08:13.917Z,1.29
2022-11-23T23:11:50.698Z,1.26
2022-11-23T23:15:28.608Z,1.25
2022-11-23T23:19:06.925Z,1.24
2022-11-23T23:22:43.918Z,1.22
2022-11-23T23:26:24.964Z,1.22
2022-11-23T23:30:00.041Z,1.21
2022-11-23T23:33:37.540Z,1.22
2022-11-23T23:37:14.731Z,1.24
2022-11-23T23:40:55.485Z,1.26
2022-11-23T23:44:30.263Z,1.24
2022-11-23T23:48:07.739Z,1.23
2022-11-23T23:51:50.113Z,1.21
2022-11-23T23:55:23.250Z,1.21
2022-11-23T23:59:01.056Z,1.21
